createdAt,value
2018-01-06T05:00:56.857Z,0
2018-01-06T05:01:22.335Z,0
2018-01-06T05:01:47.857Z,0
2018-01-06T05:02:13.345Z,0
2018-01-06T05:02:38.845Z,0
2018-01-06T05:03:04.368Z,0
2018-01-06T05:03:29.862Z,0
2018-01-06T05:03:55.363Z,0
2018-01-06T05:04:20.852Z,0
2018-01-06T05:04:46.343Z,0
2018-01-06T05:05:11.850Z,0
2018-01-06T05:05:37.318Z,0
2018-01-06T05:06:02.797Z,0
2018-01-06T05:06:28.286Z,0
2018-01-06T05:06:53.757Z,0
2018-01-06T05:07:19.236Z,0
2018-01-06T05:07:44.703Z,0
2018-01-06T05:08:10.178Z,0
2018-01-06T05:08:35.633Z,0
2018-01-06T05:09:44.332Z,0
2018-01-06T05:10:09.806Z,0
2018-01-06T05:11:28.675Z,0
2018-01-06T05:11:54.174Z,0
2018-01-06T05:12:19.712Z,0
2018-01-06T05:12:45.246Z,0
2018-01-06T05:13:10.758Z,0
2018-01-06T05:13:36.242Z,0
2018-01-06T05:14:01.780Z,0
2018-01-06T05:14:27.261Z,0
2018-01-06T05:14:52.770Z,0
2018-01-06T05:15:18.295Z,0
2018-01-06T05:15:43.744Z,0
2018-01-06T05:16:09.236Z,0
2018-01-06T05:16:34.666Z,0
2018-01-06T05:17:00.137Z,0
2018-01-06T05:17:25.645Z,0
2018-01-06T05:18:44.583Z,0
2018-01-06T05:19:10.076Z,0
2018-01-06T05:19:35.553Z,0
2018-01-06T05:20:01.046Z,0
2018-01-06T05:20:26.523Z,0
2018-01-06T05:20:52.014Z,0
2018-01-06T05:21:17.466Z,0
2018-01-06T05:21:42.964Z,0
2018-01-06T05:22:08.415Z,0
2018-01-06T05:22:33.885Z,0
2018-01-06T05:22:59.367Z,0
2018-01-06T05:23:24.831Z,0
2018-01-06T05:23:50.318Z,0
2018-01-06T05:24:15.778Z,0
2018-01-06T05:24:41.251Z,0
2018-01-06T05:25:06.732Z,0
2018-01-06T05:25:32.233Z,0
2018-01-06T05:25:57.702Z,0
2018-01-06T05:26:23.203Z,0
2018-01-06T05:26:48.665Z,0
2018-01-06T05:27:14.138Z,0
2018-01-06T05:27:39.576Z,0
2018-01-06T05:28:05.045Z,0
2018-01-06T05:28:30.513Z,0
2018-01-06T05:28:56.026Z,0
2018-01-06T05:29:21.519Z,0
2018-01-06T05:29:46.963Z,0
2018-01-06T05:30:12.465Z,0
2018-01-06T05:30:37.946Z,0
2018-01-06T05:31:03.437Z,0
2018-01-06T05:31:28.895Z,0
2018-01-06T05:31:54.364Z,0
2018-01-06T05:32:19.842Z,0
2018-01-06T05:32:45.349Z,0
2018-01-06T05:33:10.847Z,0
2018-01-06T05:33:36.352Z,0
2018-01-06T05:34:01.840Z,0
2018-01-06T05:34:27.298Z,0
2018-01-06T05:34:52.785Z,0
2018-01-06T05:35:18.297Z,0
2018-01-06T05:35:43.800Z,0
2018-01-06T05:36:09.356Z,0
2018-01-06T05:36:34.831Z,0
2018-01-06T05:37:00.311Z,0
2018-01-06T05:37:25.780Z,0
2018-01-06T05:37:51.241Z,0
2018-01-06T05:38:16.718Z,0
2018-01-06T05:39:40.731Z,0
2018-01-06T05:40:06.230Z,0
2018-01-06T05:40:31.738Z,0
2018-01-06T05:40:57.176Z,0
2018-01-06T05:41:22.718Z,0
2018-01-06T05:41:48.219Z,0
2018-01-06T05:42:13.667Z,0
2018-01-06T05:42:39.130Z,0
2018-01-06T05:43:04.602Z,0
2018-01-06T05:43:30.050Z,0
2018-01-06T05:43:55.512Z,0
2018-01-06T05:44:21.056Z,0
2018-01-06T05:44:46.542Z,0
2018-01-06T05:46:15.612Z,0
2018-01-06T05:46:41.091Z,0
2018-01-06T05:47:06.557Z,0
2018-01-06T05:47:31.999Z,0
2018-01-06T05:47:57.463Z,0
2018-01-06T05:48:22.963Z,0
2018-01-06T05:48:48.471Z,0
2018-01-06T05:49:13.948Z,0
2018-01-06T05:49:39.451Z,0
2018-01-06T05:50:04.921Z,0
2018-01-06T05:50:30.405Z,0
2018-01-06T05:50:55.899Z,0
2018-01-06T05:51:21.407Z,0
2018-01-06T05:51:46.881Z,0
2018-01-06T05:52:12.336Z,0
2018-01-06T05:52:37.843Z,0
2018-01-06T05:53:03.314Z,0
2018-01-06T05:53:28.785Z,0
2018-01-06T05:53:54.345Z,0
2018-01-06T05:54:19.776Z,0
2018-01-06T05:54:45.239Z,0
2018-01-06T05:55:10.732Z,0
2018-01-06T05:55:36.224Z,0
2018-01-06T05:56:01.667Z,0
2018-01-06T05:56:27.174Z,0
2018-01-06T05:57:46.111Z,0
2018-01-06T05:58:11.611Z,0
2018-01-06T05:58:37.104Z,0
2018-01-06T05:59:02.658Z,0
2018-01-06T05:59:28.127Z,0
2018-01-06T05:59:53.641Z,0
2018-01-06T06:00:19.155Z,0
2018-01-06T06:00:44.599Z,0
2018-01-06T06:01:10.070Z,0
2018-01-06T06:01:35.589Z,0
2018-01-06T06:02:01.148Z,0
2018-01-06T06:02:26.617Z,0
2018-01-06T06:02:52.139Z,0
2018-01-06T06:03:17.591Z,0
2018-01-06T06:03:43.132Z,0
2018-01-06T06:04:08.586Z,0
2018-01-06T06:04:34.067Z,0
2018-01-06T06:04:59.578Z,0
2018-01-06T06:05:25.084Z,0
2018-01-06T06:05:50.599Z,0
2018-01-06T06:06:16.077Z,0
2018-01-06T06:06:41.571Z,0
2018-01-06T06:07:07.054Z,0
2018-01-06T06:07:32.557Z,0
2018-01-06T06:07:58.050Z,0
2018-01-06T06:08:23.544Z,0
2018-01-06T06:08:49.014Z,0
2018-01-06T06:09:14.490Z,0
2018-01-06T06:09:39.952Z,0
2018-01-06T06:10:05.469Z,0
2018-01-06T06:10:31.019Z,0
2018-01-06T06:10:56.499Z,0
2018-01-06T06:11:21.982Z,0
2018-01-06T06:11:47.501Z,0
2018-01-06T06:12:12.982Z,0
2018-01-06T06:12:38.441Z,0
2018-01-06T06:13:03.927Z,0
2018-01-06T06:13:29.387Z,0
2018-01-06T06:14:38.122Z,0
2018-01-06T06:15:03.616Z,0
2018-01-06T06:15:29.087Z,0
2018-01-06T06:15:54.628Z,0
2018-01-06T06:17:18.660Z,0
2018-01-06T06:17:44.182Z,0
2018-01-06T06:18:09.691Z,0
2018-01-06T06:18:35.152Z,0
2018-01-06T06:19:00.638Z,0
2018-01-06T06:19:26.142Z,0
2018-01-06T06:19:51.641Z,0
2018-01-06T06:20:17.154Z,0
2018-01-06T06:20:42.673Z,0
2018-01-06T06:22:11.772Z,0
2018-01-06T06:22:37.237Z,0
2018-01-06T06:23:02.753Z,0
2018-01-06T06:23:28.243Z,0
2018-01-06T06:23:53.736Z,0
2018-01-06T06:24:19.303Z,0
2018-01-06T06:24:44.808Z,0
2018-01-06T06:25:10.294Z,0
2018-01-06T06:25:35.757Z,0
2018-01-06T06:26:01.278Z,0
2018-01-06T06:26:26.846Z,0
2018-01-06T06:26:52.295Z,0
2018-01-06T06:27:17.810Z,0
2018-01-06T06:27:43.306Z,0
2018-01-06T06:28:08.809Z,0
2018-01-06T06:28:34.357Z,0
2018-01-06T06:28:59.882Z,0
2018-01-06T06:29:25.370Z,0
2018-01-06T06:29:50.838Z,0
2018-01-06T06:30:16.346Z,0
2018-01-06T06:30:41.885Z,0
2018-01-06T06:31:07.351Z,0
2018-01-06T06:31:32.782Z,0
2018-01-06T06:31:58.356Z,0
2018-01-06T06:32:23.840Z,0
2018-01-06T06:32:49.345Z,0
2018-01-06T06:33:14.836Z,0
2018-01-06T06:33:40.347Z,0
2018-01-06T06:34:05.869Z,0
2018-01-06T06:34:31.346Z,0
2018-01-06T06:34:56.827Z,0
2018-01-06T06:35:22.387Z,0
2018-01-06T06:35:47.886Z,0
2018-01-06T06:36:13.347Z,0
2018-01-06T06:36:38.836Z,0
2018-01-06T06:37:04.378Z,0
2018-01-06T06:37:29.911Z,0
2018-01-06T06:37:55.435Z,0
2018-01-06T06:38:20.923Z,0
2018-01-06T06:38:46.444Z,0
2018-01-06T06:39:11.943Z,0
2018-01-06T06:39:37.422Z,0
2018-01-06T06:40:02.908Z,0
2018-01-06T06:40:28.392Z,0
2018-01-06T06:40:53.879Z,0
2018-01-06T06:41:19.465Z,0
2018-01-06T06:41:44.950Z,0
2018-01-06T06:42:10.425Z,0
2018-01-06T06:42:35.934Z,0
2018-01-06T06:43:01.408Z,0
2018-01-06T06:43:26.877Z,0
2018-01-06T06:43:52.399Z,0
2018-01-06T06:44:17.899Z,0
2018-01-06T06:45:26.632Z,0
2018-01-06T06:45:52.106Z,0
2018-01-06T06:46:17.590Z,0
2018-01-06T06:46:43.090Z,0
2018-01-06T06:47:08.536Z,0
2018-01-06T06:47:34.019Z,0
2018-01-06T06:47:59.491Z,0
2018-01-06T06:48:24.972Z,0
2018-01-06T06:48:50.492Z,0
2018-01-06T06:49:15.964Z,0
2018-01-06T06:49:41.465Z,0
2018-01-06T06:50:06.958Z,0
2018-01-06T06:50:32.474Z,0
2018-01-06T06:51:55.990Z,0
2018-01-06T06:52:21.514Z,0
2018-01-06T06:52:46.987Z,0
2018-01-06T06:53:12.477Z,0
2018-01-06T06:53:37.957Z,0
2018-01-06T06:54:03.416Z,0
2018-01-06T06:54:28.901Z,0
2018-01-06T06:54:54.417Z,0
2018-01-06T06:55:19.901Z,0
2018-01-06T06:55:45.402Z,0
2018-01-06T06:56:58.687Z,0
2018-01-06T06:57:24.198Z,0
2018-01-06T06:57:49.717Z,0
2018-01-06T06:58:15.207Z,0
2018-01-06T06:58:40.723Z,0
2018-01-06T06:59:06.202Z,0
2018-01-06T06:59:31.689Z,0
2018-01-06T06:59:57.199Z,0
2018-01-06T07:00:22.678Z,0
2018-01-06T07:00:48.146Z,0
2018-01-06T07:01:13.650Z,0
2018-01-06T07:01:39.095Z,0
2018-01-06T07:02:04.572Z,0
2018-01-06T07:02:30.120Z,0
2018-01-06T07:02:55.600Z,0
2018-01-06T07:03:21.050Z,0
2018-01-06T07:03:46.547Z,0
2018-01-06T07:04:12.063Z,0
2018-01-06T07:04:37.522Z,0
2018-01-06T07:05:02.995Z,0
2018-01-06T07:05:28.551Z,0
2018-01-06T07:05:53.998Z,0
2018-01-06T07:06:19.451Z,0
2018-01-06T07:06:44.954Z,0
2018-01-06T07:07:10.449Z,0
2018-01-06T07:07:35.901Z,0
2018-01-06T07:08:01.388Z,0
2018-01-06T07:08:26.849Z,0
2018-01-06T07:08:52.323Z,0
2018-01-06T07:09:17.776Z,0
2018-01-06T07:09:43.290Z,0
2018-01-06T07:10:08.817Z,0
2018-01-06T07:10:34.322Z,0
2018-01-06T07:10:59.795Z,0
2018-01-06T07:11:25.296Z,0
2018-01-06T07:11:50.824Z,0
2018-01-06T07:12:16.334Z,0
2018-01-06T07:12:41.794Z,0
2018-01-06T07:13:07.280Z,0
2018-01-06T07:13:32.776Z,0
2018-01-06T07:13:58.313Z,0
2018-01-06T07:14:23.820Z,0
2018-01-06T07:14:49.336Z,0
2018-01-06T07:15:14.857Z,0
2018-01-06T07:15:40.356Z,0
2018-01-06T07:16:05.862Z,0
2018-01-06T07:16:31.301Z,0
2018-01-06T07:16:56.798Z,0
2018-01-06T07:17:22.307Z,0
2018-01-06T07:17:47.746Z,0
2018-01-06T07:18:13.282Z,0
2018-01-06T07:18:38.788Z,0
2018-01-06T07:19:04.289Z,0
2018-01-06T07:19:29.744Z,0
2018-01-06T07:19:55.212Z,0
2018-01-06T07:20:20.678Z,0
2018-01-06T07:20:46.147Z,0
2018-01-06T07:21:11.644Z,0
2018-01-06T07:21:37.178Z,0
2018-01-06T07:22:02.658Z,0
2018-01-06T07:22:28.128Z,0
2018-01-06T07:22:53.629Z,0
2018-01-06T07:23:19.199Z,0
2018-01-06T07:23:44.689Z,0
2018-01-06T07:24:10.149Z,0
2018-01-06T07:24:35.658Z,0
2018-01-06T07:25:01.131Z,0
2018-01-06T07:25:26.578Z,0
2018-01-06T07:25:52.090Z,0
2018-01-06T07:26:17.605Z,0
2018-01-06T07:26:43.103Z,0
2018-01-06T07:27:08.582Z,0
2018-01-06T07:27:34.075Z,0
2018-01-06T07:27:59.544Z,0
2018-01-06T07:28:25.033Z,0
2018-01-06T07:28:50.514Z,0
2018-01-06T07:29:15.995Z,0
2018-01-06T07:29:41.535Z,0
2018-01-06T07:30:06.975Z,0
2018-01-06T07:30:32.462Z,0
2018-01-06T07:30:57.935Z,0
2018-01-06T07:31:23.422Z,0
2018-01-06T07:31:48.918Z,0
2018-01-06T07:32:14.413Z,0
2018-01-06T07:32:39.907Z,0
2018-01-06T07:33:05.404Z,0
2018-01-06T07:33:30.918Z,0
2018-01-06T07:33:56.440Z,0
2018-01-06T07:34:21.988Z,0
2018-01-06T07:34:47.458Z,0
2018-01-06T07:36:11.535Z,0
2018-01-06T07:36:37.029Z,0
2018-01-06T07:37:02.527Z,0
2018-01-06T07:37:27.993Z,0
2018-01-06T07:37:53.499Z,0
2018-01-06T07:38:18.992Z,0
2018-01-06T07:38:44.442Z,0
2018-01-06T07:39:09.928Z,0
2018-01-06T07:39:35.437Z,0
2018-01-06T07:40:00.896Z,5
2018-01-06T07:40:26.362Z,5
2018-01-06T07:41:39.666Z,5
2018-01-06T07:42:05.172Z,5
2018-01-06T07:42:30.683Z,5
2018-01-06T07:42:56.200Z,5
2018-01-06T07:44:20.135Z,5
2018-01-06T07:44:45.613Z,5
2018-01-06T07:45:11.093Z,5
2018-01-06T07:45:36.575Z,5
2018-01-06T07:46:02.106Z,5
2018-01-06T07:46:27.573Z,5
2018-01-06T07:46:53.046Z,5
2018-01-06T07:47:18.549Z,5
2018-01-06T07:47:44.039Z,5
2018-01-06T07:48:09.578Z,5
2018-01-06T07:48:35.032Z,5
2018-01-06T07:49:00.588Z,5
2018-01-06T07:50:29.722Z,5
2018-01-06T07:50:55.215Z,5
2018-01-06T07:51:20.732Z,5
2018-01-06T07:51:46.204Z,5
2018-01-06T07:52:11.700Z,10
2018-01-06T07:52:37.234Z,10
2018-01-06T07:53:02.760Z,10
2018-01-06T07:53:28.256Z,10
2018-01-06T07:53:53.726Z,10
2018-01-06T07:54:19.203Z,10
2018-01-06T07:54:44.673Z,10
2018-01-06T07:55:10.139Z,10
2018-01-06T07:55:35.623Z,10
2018-01-06T07:56:01.112Z,10
2018-01-06T07:56:26.590Z,10
2018-01-06T07:56:52.068Z,10
2018-01-06T07:57:17.583Z,15
2018-01-06T07:57:43.055Z,15
2018-01-06T07:58:08.681Z,15
2018-01-06T07:58:34.241Z,15
2018-01-06T07:58:59.728Z,15
2018-01-06T08:00:23.711Z,15
2018-01-06T08:00:49.158Z,15
2018-01-06T08:01:14.797Z,15
2018-01-06T08:01:40.253Z,15
2018-01-06T08:02:05.739Z,20
2018-01-06T08:02:31.248Z,20
2018-01-06T08:02:56.695Z,20
2018-01-06T08:03:22.187Z,20
2018-01-06T08:03:47.726Z,20
2018-01-06T08:04:13.184Z,20
2018-01-06T08:04:38.691Z,20
2018-01-06T08:05:04.202Z,20
2018-01-06T08:05:29.699Z,20
2018-01-06T08:05:55.121Z,20
2018-01-06T08:06:20.684Z,20
2018-01-06T08:06:46.122Z,20
2018-01-06T08:07:11.621Z,20
2018-01-06T08:07:37.026Z,20
2018-01-06T08:08:02.592Z,20
2018-01-06T08:08:28.080Z,20
2018-01-06T08:08:53.564Z,25
2018-01-06T08:09:19.073Z,25
2018-01-06T08:09:44.582Z,25
2018-01-06T08:10:09.966Z,25
2018-01-06T08:10:35.605Z,25
2018-01-06T08:11:01.203Z,25
2018-01-06T08:11:26.690Z,25
2018-01-06T08:11:52.096Z,25
2018-01-06T08:12:17.644Z,25
2018-01-06T08:12:43.126Z,25
2018-01-06T08:13:08.654Z,25
2018-01-06T08:13:34.213Z,25
2018-01-06T08:13:59.765Z,25
2018-01-06T08:14:25.226Z,25
2018-01-06T08:14:50.714Z,25
2018-01-06T08:15:16.154Z,25
2018-01-06T08:15:41.618Z,25
2018-01-06T08:16:07.160Z,25
2018-01-06T08:16:32.650Z,25
2018-01-06T08:16:58.121Z,25
2018-01-06T08:17:23.601Z,25
2018-01-06T08:17:49.025Z,25
2018-01-06T08:18:14.502Z,25
2018-01-06T08:18:40.048Z,25
2018-01-06T08:19:05.502Z,25
2018-01-06T08:19:31.051Z,25
2018-01-06T08:19:56.534Z,25
2018-01-06T08:20:22.088Z,25
2018-01-06T08:20:47.615Z,25
2018-01-06T08:21:13.118Z,25
2018-01-06T08:21:38.600Z,25
2018-01-06T08:22:04.076Z,25
2018-01-06T08:22:29.563Z,25
2018-01-06T08:22:55.031Z,25
2018-01-06T08:23:20.592Z,25
2018-01-06T08:23:46.087Z,30
2018-01-06T08:24:11.586Z,30
2018-01-06T08:24:37.050Z,30
2018-01-06T08:25:02.636Z,30
2018-01-06T08:25:28.150Z,30
2018-01-06T08:25:53.629Z,30
2018-01-06T08:26:19.121Z,30
2018-01-06T08:26:44.641Z,30
2018-01-06T08:27:10.163Z,30
2018-01-06T08:27:35.694Z,30
2018-01-06T08:28:01.204Z,30
2018-01-06T08:28:26.650Z,35
2018-01-06T08:28:52.174Z,35
2018-01-06T08:29:17.640Z,35
2018-01-06T08:29:43.116Z,35
2018-01-06T08:30:08.609Z,35
2018-01-06T08:30:34.111Z,35
2018-01-06T08:30:59.580Z,35
2018-01-06T08:31:25.068Z,40
2018-01-06T08:31:50.559Z,40
2018-01-06T08:32:16.068Z,40
2018-01-06T08:33:24.747Z,40
2018-01-06T08:33:50.256Z,40
2018-01-06T08:34:15.752Z,40
2018-01-06T08:34:41.278Z,40
2018-01-06T08:35:06.738Z,40
2018-01-06T08:35:32.257Z,45
2018-01-06T08:35:57.736Z,45
2018-01-06T08:36:23.220Z,45
2018-01-06T08:36:48.759Z,45
2018-01-06T08:38:12.755Z,50
2018-01-06T08:38:38.232Z,50
2018-01-06T08:39:03.726Z,50
2018-01-06T08:39:29.209Z,50
2018-01-06T08:39:54.704Z,50
2018-01-06T08:40:20.336Z,50
2018-01-06T08:40:45.876Z,45
2018-01-06T08:41:11.377Z,45
2018-01-06T08:41:36.861Z,45
2018-01-06T08:42:02.349Z,45
2018-01-06T08:42:28.147Z,45
2018-01-06T08:42:53.651Z,40
2018-01-06T08:43:19.238Z,40
2018-01-06T08:43:44.727Z,40
2018-01-06T08:44:10.210Z,40
2018-01-06T08:44:35.737Z,40
2018-01-06T08:45:01.210Z,40
2018-01-06T08:45:26.776Z,40
2018-01-06T08:45:52.254Z,40
2018-01-06T08:46:17.690Z,40
2018-01-06T08:46:43.133Z,40
2018-01-06T08:47:08.631Z,40
2018-01-06T08:47:34.125Z,40
2018-01-06T08:47:59.625Z,40
2018-01-06T08:48:25.104Z,40
2018-01-06T08:48:50.598Z,40
2018-01-06T08:49:16.147Z,40
2018-01-06T08:49:41.646Z,40
2018-01-06T08:50:07.164Z,40
2018-01-06T08:50:32.689Z,40
2018-01-06T08:50:58.175Z,40
2018-01-06T08:51:23.710Z,40
2018-01-06T08:52:47.704Z,40
2018-01-06T08:53:13.211Z,40
2018-01-06T08:53:38.834Z,40
2018-01-06T08:54:04.339Z,35
2018-01-06T08:54:29.987Z,35
2018-01-06T08:54:55.791Z,35
2018-01-06T08:55:21.294Z,40
2018-01-06T08:55:46.914Z,40
2018-01-06T08:56:12.394Z,40
2018-01-06T08:56:37.785Z,40
2018-01-06T08:57:03.298Z,40
2018-01-06T08:57:28.810Z,40
2018-01-06T08:57:54.254Z,45
2018-01-06T08:58:19.746Z,45
2018-01-06T08:58:45.175Z,45
2018-01-06T08:59:10.641Z,45
2018-01-06T08:59:36.101Z,45
2018-01-06T09:00:01.549Z,45
2018-01-06T09:00:26.991Z,45
2018-01-06T09:00:52.452Z,45
2018-01-06T09:01:17.892Z,45
2018-01-06T09:01:43.390Z,45
2018-01-06T09:02:08.856Z,45
2018-01-06T09:02:34.299Z,45
2018-01-06T09:02:59.772Z,45
2018-01-06T09:03:25.285Z,45
2018-01-06T09:04:39.830Z,45
2018-01-06T09:05:05.338Z,45
2018-01-06T09:05:30.868Z,50
2018-01-06T09:05:56.357Z,50
2018-01-06T09:06:21.786Z,50
2018-01-06T09:06:47.251Z,50
2018-01-06T09:07:12.738Z,50
2018-01-06T09:07:38.248Z,50
2018-01-06T09:08:03.688Z,55
2018-01-06T09:08:29.166Z,55
2018-01-06T09:08:54.630Z,55
2018-01-06T09:09:20.086Z,60
2018-01-06T09:09:45.596Z,60
2018-01-06T09:10:11.094Z,60
2018-01-06T09:10:36.555Z,60
2018-01-06T09:11:02.053Z,60
2018-01-06T09:11:27.529Z,60
2018-01-06T09:11:52.992Z,60
2018-01-06T09:12:18.443Z,60
2018-01-06T09:12:43.939Z,60
2018-01-06T09:13:09.447Z,55
2018-01-06T09:13:35.104Z,55
2018-01-06T09:14:00.599Z,55
2018-01-06T09:14:26.097Z,55
2018-01-06T09:14:51.877Z,60
2018-01-06T09:15:17.277Z,60
2018-01-06T09:15:42.808Z,60
2018-01-06T09:16:08.278Z,55
2018-01-06T09:16:33.811Z,55
2018-01-06T09:16:59.265Z,55
2018-01-06T09:17:24.758Z,55
2018-01-06T09:17:50.316Z,55
2018-01-06T09:18:15.787Z,55
2018-01-06T09:18:41.211Z,55
2018-01-06T09:19:06.658Z,55
2018-01-06T09:19:32.137Z,55
2018-01-06T09:19:57.645Z,55
2018-01-06T09:20:23.092Z,55
2018-01-06T09:20:48.550Z,55
2018-01-06T09:21:14.025Z,55
2018-01-06T09:21:39.478Z,55
2018-01-06T09:22:04.972Z,55
2018-01-06T09:22:30.443Z,55
2018-01-06T09:22:55.921Z,55
2018-01-06T09:23:21.478Z,55
2018-01-06T09:23:46.881Z,55
2018-01-06T09:24:12.360Z,55
2018-01-06T09:24:37.826Z,55
2018-01-06T09:26:07.923Z,55
2018-01-06T09:26:33.413Z,55
2018-01-06T09:26:58.917Z,55
2018-01-06T09:27:24.367Z,55
2018-01-06T09:27:49.864Z,55
2018-01-06T09:28:15.298Z,55
2018-01-06T09:28:40.762Z,55
2018-01-06T09:29:06.251Z,55
2018-01-06T09:29:31.734Z,55
2018-01-06T09:29:57.154Z,55
2018-01-06T09:30:22.633Z,55
2018-01-06T09:30:48.098Z,60
2018-01-06T09:31:13.589Z,65
2018-01-06T09:31:39.094Z,70
2018-01-06T09:32:04.501Z,75
2018-01-06T09:32:29.988Z,80
2018-01-06T09:32:55.415Z,85
2018-01-06T09:33:20.888Z,85
2018-01-06T09:33:46.375Z,90
2018-01-06T09:34:11.902Z,90
2018-01-06T09:34:37.370Z,90
2018-01-06T09:35:02.820Z,85
2018-01-06T09:35:28.309Z,80
2018-01-06T09:35:53.733Z,80
2018-01-06T09:36:19.195Z,80
2018-01-06T09:36:44.691Z,85
2018-01-06T09:37:10.137Z,85
2018-01-06T09:37:35.563Z,85
2018-01-06T09:38:01.062Z,95
2018-01-06T09:38:26.547Z,90
2018-01-06T09:38:52.016Z,90
2018-01-06T09:39:17.457Z,90
2018-01-06T09:39:42.948Z,95
2018-01-06T09:40:08.423Z,95
2018-01-06T09:40:33.870Z,95
2018-01-06T09:40:59.370Z,95
2018-01-06T09:41:24.829Z,90
2018-01-06T09:41:50.294Z,90
2018-01-06T09:42:15.764Z,85
2018-01-06T09:42:41.260Z,85
2018-01-06T09:43:06.728Z,80
2018-01-06T09:43:32.194Z,80
2018-01-06T09:43:57.730Z,80
2018-01-06T09:44:23.150Z,75
2018-01-06T09:45:47.174Z,65
2018-01-06T09:46:12.661Z,65
2018-01-06T09:46:38.173Z,65
2018-01-06T09:47:03.638Z,65
2018-01-06T09:47:29.091Z,65
2018-01-06T09:47:54.562Z,65
2018-01-06T09:48:20.044Z,70
2018-01-06T09:48:45.498Z,70
2018-01-06T09:49:11.023Z,70
2018-01-06T09:49:36.497Z,70
2018-01-06T09:50:01.962Z,70
2018-01-06T09:50:27.456Z,75
2018-01-06T09:50:52.888Z,80
2018-01-06T09:51:18.367Z,80
2018-01-06T09:51:43.826Z,80
2018-01-06T09:52:09.294Z,80
2018-01-06T09:52:34.740Z,85
2018-01-06T09:53:00.203Z,85
2018-01-06T09:53:25.667Z,85
2018-01-06T09:53:51.159Z,85
2018-01-06T09:54:16.598Z,80
2018-01-06T09:54:42.142Z,80
2018-01-06T09:55:07.660Z,80
2018-01-06T09:55:33.106Z,80
2018-01-06T09:55:58.601Z,80
2018-01-06T09:56:24.061Z,80
2018-01-06T09:57:37.858Z,75
2018-01-06T09:58:03.341Z,80
2018-01-06T09:58:28.871Z,80
2018-01-06T09:58:54.390Z,85
2018-01-06T09:59:19.901Z,90
2018-01-06T09:59:45.400Z,90
2018-01-06T10:00:10.881Z,90
2018-01-06T10:00:36.382Z,90
2018-01-06T10:01:01.916Z,90
2018-01-06T10:02:10.620Z,90
2018-01-06T10:02:36.118Z,90
2018-01-06T10:03:01.628Z,90
2018-01-06T10:03:27.164Z,90
2018-01-06T10:03:52.635Z,90
2018-01-06T10:04:18.104Z,90
2018-01-06T10:04:43.950Z,90
2018-01-06T10:05:09.402Z,95
2018-01-06T10:05:34.905Z,95
2018-01-06T10:06:00.403Z,100
2018-01-06T10:06:25.934Z,110
2018-01-06T10:06:51.363Z,105
2018-01-06T10:07:16.920Z,110
2018-01-06T10:07:42.406Z,115
2018-01-06T10:08:07.909Z,110
2018-01-06T10:08:33.429Z,115
2018-01-06T10:08:58.951Z,120
2018-01-06T10:09:24.498Z,115
2018-01-06T10:09:49.931Z,115
2018-01-06T10:10:15.423Z,115
2018-01-06T10:10:41.022Z,115
2018-01-06T10:11:06.413Z,115
2018-01-06T10:11:31.904Z,115
2018-01-06T10:11:57.409Z,120
2018-01-06T10:12:22.918Z,115
2018-01-06T10:12:48.398Z,110
2018-01-06T10:13:13.942Z,110
2018-01-06T10:13:39.463Z,105
2018-01-06T10:14:04.981Z,100
2018-01-06T10:14:30.440Z,100
2018-01-06T10:14:55.967Z,95
2018-01-06T10:15:21.434Z,90
2018-01-06T10:15:46.978Z,90
2018-01-06T10:16:12.481Z,85
2018-01-06T10:16:37.976Z,85
2018-01-06T10:17:03.530Z,90
2018-01-06T10:17:29.035Z,90
2018-01-06T10:17:54.541Z,90
2018-01-06T10:18:20.066Z,95
2018-01-06T10:18:45.520Z,95
2018-01-06T10:19:11.024Z,95
2018-01-06T10:19:36.560Z,90
2018-01-06T10:20:02.068Z,90
2018-01-06T10:20:27.556Z,90
2018-01-06T10:20:53.081Z,90
2018-01-06T10:21:18.543Z,95
2018-01-06T10:21:44.079Z,95
2018-01-06T10:22:09.552Z,95
2018-01-06T10:22:35.050Z,100
2018-01-06T10:23:00.545Z,100
2018-01-06T10:23:26.049Z,100
2018-01-06T10:23:51.624Z,105
2018-01-06T10:24:17.090Z,110
2018-01-06T10:24:42.557Z,105
2018-01-06T10:25:08.082Z,105
2018-01-06T10:25:33.602Z,105
2018-01-06T10:25:59.036Z,100
2018-01-06T10:26:24.508Z,100
2018-01-06T10:26:50.026Z,95
2018-01-06T10:27:15.450Z,95
2018-01-06T10:27:40.912Z,90
2018-01-06T10:28:06.364Z,90
2018-01-06T10:28:31.894Z,85
2018-01-06T10:28:57.392Z,85
2018-01-06T10:29:22.843Z,85
2018-01-06T10:29:48.267Z,85
2018-01-06T10:30:13.807Z,85
2018-01-06T10:30:39.244Z,80
2018-01-06T10:31:04.709Z,80
2018-01-06T10:31:30.225Z,75
2018-01-06T10:31:55.654Z,80
2018-01-06T10:32:21.159Z,80
2018-01-06T10:33:50.234Z,95
2018-01-06T10:34:15.746Z,100
2018-01-06T10:34:41.254Z,105
2018-01-06T10:35:06.716Z,110
2018-01-06T10:35:32.322Z,105
2018-01-06T10:35:57.810Z,100
2018-01-06T10:36:23.338Z,100
2018-01-06T10:36:48.904Z,100
2018-01-06T10:37:14.315Z,100
2018-01-06T10:37:39.853Z,100
2018-01-06T10:38:05.338Z,100
2018-01-06T10:38:30.837Z,100
2018-01-06T10:38:56.331Z,100
2018-01-06T10:39:21.821Z,100
2018-01-06T10:39:47.292Z,100
2018-01-06T10:40:12.788Z,100
2018-01-06T10:40:38.241Z,100
2018-01-06T10:41:03.728Z,100
2018-01-06T10:41:29.209Z,105
2018-01-06T10:41:54.701Z,105
2018-01-06T10:42:20.165Z,105
2018-01-06T10:42:45.695Z,105
2018-01-06T10:43:11.138Z,105
2018-01-06T10:43:36.672Z,105
2018-01-06T10:44:02.166Z,105
2018-01-06T10:44:27.689Z,110
2018-01-06T10:44:53.197Z,105
2018-01-06T10:45:18.832Z,105
2018-01-06T10:45:44.288Z,100
2018-01-06T10:46:09.830Z,100
2018-01-06T10:46:35.286Z,100
2018-01-06T10:47:00.773Z,105
2018-01-06T10:47:26.251Z,105
2018-01-06T10:47:51.726Z,110
2018-01-06T10:48:17.165Z,115
2018-01-06T10:48:42.658Z,120
2018-01-06T10:49:08.213Z,120
2018-01-06T10:50:21.987Z,125
2018-01-06T10:50:47.479Z,120
2018-01-06T10:51:12.950Z,120
2018-01-06T10:51:38.482Z,120
2018-01-06T10:52:03.852Z,115
2018-01-06T10:53:32.929Z,110
2018-01-06T10:53:58.383Z,110
2018-01-06T10:54:24.206Z,105
2018-01-06T10:54:49.694Z,105
2018-01-06T10:55:15.403Z,110
2018-01-06T10:55:40.886Z,110
2018-01-06T10:56:06.297Z,115
2018-01-06T10:56:31.791Z,125
2018-01-06T10:56:57.277Z,125
2018-01-06T10:57:22.732Z,125
2018-01-06T10:57:48.184Z,130
2018-01-06T10:58:13.641Z,135
2018-01-06T10:58:39.086Z,135
2018-01-06T10:59:04.640Z,140
2018-01-06T10:59:30.011Z,135
2018-01-06T10:59:55.460Z,135
2018-01-06T11:00:20.942Z,135
2018-01-06T11:00:46.497Z,130
2018-01-06T11:01:11.946Z,130
2018-01-06T11:01:37.460Z,130
2018-01-06T11:02:02.999Z,125
2018-01-06T11:02:28.543Z,120
2018-01-06T11:02:54.063Z,115
2018-01-06T11:03:19.608Z,110
2018-01-06T11:03:45.065Z,105
2018-01-06T11:04:10.608Z,100
2018-01-06T11:04:36.067Z,100
2018-01-06T11:05:01.532Z,105
2018-01-06T11:05:27.034Z,105
2018-01-06T11:05:52.577Z,110
2018-01-06T11:06:18.070Z,115
2018-01-06T11:06:43.588Z,115
2018-01-06T11:07:09.061Z,120
2018-01-06T11:07:34.537Z,125
2018-01-06T11:08:00.024Z,125
2018-01-06T11:08:25.475Z,125
2018-01-06T11:08:50.952Z,130
2018-01-06T11:09:16.512Z,130
2018-01-06T11:09:42.043Z,130
2018-01-06T11:10:07.479Z,130
2018-01-06T11:10:32.971Z,130
2018-01-06T11:10:58.448Z,130
2018-01-06T11:11:23.944Z,130
2018-01-06T11:11:49.639Z,130
2018-01-06T11:12:15.140Z,130
2018-01-06T11:12:40.563Z,130
2018-01-06T11:13:06.229Z,130
2018-01-06T11:13:31.718Z,135
2018-01-06T11:13:57.204Z,135
2018-01-06T11:14:22.648Z,135
2018-01-06T11:14:48.150Z,135
2018-01-06T11:16:17.252Z,135
2018-01-06T11:16:42.778Z,135
2018-01-06T11:17:08.215Z,130
2018-01-06T11:17:33.671Z,130
2018-01-06T11:17:59.119Z,125
2018-01-06T11:18:24.638Z,120
2018-01-06T11:18:50.139Z,120
2018-01-06T11:19:15.629Z,115
2018-01-06T11:19:41.118Z,115
2018-01-06T11:20:06.587Z,115
2018-01-06T11:20:32.068Z,115
2018-01-06T11:20:57.602Z,115
2018-01-06T11:21:23.092Z,115
2018-01-06T11:21:48.620Z,115
2018-01-06T11:22:14.084Z,115
2018-01-06T11:22:39.570Z,115
2018-01-06T11:23:05.102Z,115
2018-01-06T11:23:30.598Z,120
2018-01-06T11:23:56.126Z,120
2018-01-06T11:24:21.597Z,120
2018-01-06T11:24:47.084Z,120
2018-01-06T11:25:12.562Z,125
2018-01-06T11:25:38.054Z,120
2018-01-06T11:26:03.584Z,120
2018-01-06T11:26:29.036Z,120
2018-01-06T11:26:54.549Z,120
2018-01-06T11:27:20.034Z,120
2018-01-06T11:27:45.489Z,120
2018-01-06T11:28:10.977Z,120
2018-01-06T11:28:36.471Z,115
2018-01-06T11:29:01.944Z,115
2018-01-06T11:30:31.014Z,115
2018-01-06T11:30:56.516Z,115
2018-01-06T11:31:22.034Z,115
2018-01-06T11:31:47.515Z,115
2018-01-06T11:32:12.996Z,120
2018-01-06T11:32:38.655Z,120
2018-01-06T11:33:04.059Z,120
2018-01-06T11:33:29.540Z,120
2018-01-06T11:33:55.031Z,120
2018-01-06T11:34:20.558Z,120
2018-01-06T11:34:45.942Z,120